Hartland, Michigan
Current Conditions -  °F | °C
As of 11:14 AM on Tuesday 21 Oct 2014 (Local Time) from KOZW Reporting Station
Overcast Overcast  
Wind Chill: 40°   Ceiling: 2400
Heat Index: 45°   Visibility: 7mi
Dew Point: 41°   Wind: 8mph
Humidity: 87%   Direction: 340°NNW
Pressure: 30.05"   Gusts: NA
Location:  42.66°N, 83.75°W
Report Text: KOZW 211514Z AUTO 34007KT 7SM SCT014 OVC024 07/05 A3005 RMK AO2 T00700050
Loading
Personal Weather Stations






























Interactive Weather Map
Tropical Storm Tracking
New forecast layout! Learn more

10-Day Weather Forecast

Advertisements
Track Severe Weather on mobile